Time;durP1;ratioP1;P1;durP2;ratioP2;P2;SDS_P1;SDS_P2;PMS_P1;PMS_P2;Temp;Humidity;BMP_temperature;BMP_pressure;BME280_temperature;BME280_humidity;BME280_pressure;Samples;Min_cycle;Max_cycle;Signal;HPM_P1;HPM_P2
2023/01/30 00:00:26;;;;;;;2.05;1.95;;;16.70;49.70;;;;;;5102286;28;20069;-73
2023/01/30 00:02:51;;;;;;;2.17;1.98;;;16.60;49.60;;;;;;5102121;28;20036;-70
2023/01/30 00:05:17;;;;;;;3.15;2.10;;;16.70;49.40;;;;;;5100810;28;20046;-70
2023/01/30 00:07:43;;;;;;;2.95;2.55;;;16.80;49.40;;;;;;5101888;28;20425;-71
2023/01/30 00:10:09;;;;;;;3.13;2.42;;;16.80;49.20;;;;;;5102054;28;20024;-70
2023/01/30 00:12:35;;;;;;;2.60;2.40;;;16.80;49.30;;;;;;5102020;28;20031;-71
2023/01/30 00:15:01;;;;;;;2.40;2.20;;;16.80;49.20;;;;;;5101958;28;20035;-71
2023/01/30 00:17:27;;;;;;;2.53;2.30;;;16.80;49.20;;;;;;5101978;28;20024;-71
2023/01/30 00:19:53;;;;;;;3.13;2.55;;;16.70;49.40;;;;;;5102132;28;20040;-70
2023/01/30 00:22:18;;;;;;;5.38;2.75;;;16.60;49.40;;;;;;5101925;28;20028;-70
2023/01/30 00:24:44;;;;;;;4.07;2.50;;;16.60;49.60;;;;;;5101779;28;20028;-70
2023/01/30 00:27:10;;;;;;;2.78;2.53;;;16.50;49.60;;;;;;5101663;28;20026;-71
2023/01/30 00:29:36;;;;;;;2.78;2.38;;;16.40;49.80;;;;;;5101046;28;20034;-71
2023/01/30 00:32:02;;;;;;;3.15;2.47;;;16.40;49.80;;;;;;5101698;28;20047;-70
2023/01/30 00:34:27;;;;;;;2.25;2.08;;;16.30;49.70;;;;;;5101598;28;20027;-70
2023/01/30 00:36:53;;;;;;;3.17;2.40;;;16.20;49.80;;;;;;5100302;28;20020;-72
2023/01/30 00:39:19;;;;;;;3.00;2.65;;;16.20;49.90;;;;;;5101763;28;20028;-71
2023/01/30 00:47:13;;;;;;;2.40;2.20;;;16.10;50.30;;;;;;5101293;28;20027;-70
2023/01/30 00:49:39;;;;;;;2.53;2.20;;;16.10;50.30;;;;;;5101246;28;20032;-70
2023/01/30 00:52:05;;;;;;;2.67;2.47;;;16.20;50.50;;;;;;5101206;28;20039;-70
2023/01/30 00:54:31;;;;;;;2.72;2.30;;;16.30;50.30;;;;;;5101089;28;20037;-69
2023/01/30 00:56:56;;;;;;;3.25;2.40;;;16.40;50.10;;;;;;5101170;28;20020;-70
2023/01/30 00:59:22;;;;;;;2.17;1.95;;;16.50;50.00;;;;;;5101119;28;20035;-70
2023/01/30 01:01:48;;;;;;;2.47;2.03;;;16.50;49.70;;;;;;5101188;28;20031;-70
2023/01/30 01:04:14;;;;;;;2.60;2.25;;;16.60;49.50;;;;;;5099658;28;20031;-70
2023/01/30 01:06:40;;;;;;;2.35;2.15;;;16.60;49.60;;;;;;5101213;28;20024;-70
2023/01/30 01:09:06;;;;;;;2.67;2.40;;;16.60;49.70;;;;;;5100726;28;20067;-71
2023/01/30 01:11:32;;;;;;;3.05;2.28;;;16.70;49.50;;;;;;5100943;28;20024;-70
2023/01/30 01:14:00;;;;;;;2.40;2.20;;;16.70;49.40;;;;;;5100920;28;20031;-70
2023/01/30 01:16:28;;;;;;;3.30;2.78;;;16.70;49.10;;;;;;5100971;28;20484;-70
2023/01/30 01:18:54;;;;;;;2.63;2.20;;;16.80;49.10;;;;;;5100922;28;20020;-71
2023/01/30 01:21:21;;;;;;;2.85;2.40;;;16.70;49.30;;;;;;5099554;28;20031;-71
2023/01/30 01:23:51;;;;;;;2.35;2.15;;;16.60;49.20;;;;;;5100770;28;20020;-70
2023/01/30 01:26:17;;;;;;;2.70;2.30;;;16.60;49.40;;;;;;5100727;28;20039;-70
2023/01/30 01:28:43;;;;;;;2.67;2.00;;;16.50;49.60;;;;;;5099456;28;20024;-70
2023/01/30 01:31:10;;;;;;;2.88;2.55;;;16.40;49.60;;;;;;5099316;28;20030;-70
2023/01/30 01:33:36;;;;;;;2.45;2.20;;;16.40;49.60;;;;;;5099267;28;20020;-70
2023/01/30 01:36:03;;;;;;;2.80;2.42;;;16.30;49.80;;;;;;5100552;28;20069;-70
2023/01/30 01:38:28;;;;;;;2.90;2.30;;;16.20;49.80;;;;;;5100577;28;20024;-70
2023/01/30 01:41:08;;;;;;;2.75;2.28;;;16.10;50.00;;;;;;5099527;28;20066;-70
2023/01/30 01:44:07;;;;;;;3.38;2.30;;;16.10;50.10;;;;;;5100446;28;20026;-70
2023/01/30 01:46:56;;;;;;;2.53;2.25;;;16.00;50.20;;;;;;5100514;28;20026;-71
2023/01/30 01:49:26;;;;;;;2.70;2.10;;;16.00;50.20;;;;;;5100399;28;20034;-70
2023/01/30 01:51:55;;;;;;;2.45;2.08;;;16.00;50.50;;;;;;5100440;28;20421;-70
2023/01/30 01:54:49;;;;;;;2.72;2.13;;;16.00;50.40;;;;;;5100384;28;20031;-71
2023/01/30 01:57:30;;;;;;;2.60;2.40;;;16.10;50.50;;;;;;5100464;28;20019;-70
2023/01/30 02:00:11;;;;;;;3.35;2.53;;;16.20;50.20;;;;;;5100260;28;20020;-71
2023/01/30 02:02:40;;;;;;;3.33;2.75;;;16.30;50.80;;;;;;5100271;28;20024;-70
2023/01/30 02:05:09;;;;;;;3.50;2.90;;;16.40;49.80;;;;;;5100326;28;20051;-70
2023/01/30 02:07:55;;;;;;;3.10;2.42;;;16.50;49.60;;;;;;5098703;28;20071;-70
2023/01/30 02:10:35;;;;;;;2.70;2.30;;;16.50;49.70;;;;;;5100177;28;20039;-71
2023/01/30 02:13:02;;;;;;;2.80;2.42;;;16.50;49.50;;;;;;5100191;28;20031;-71
2023/01/30 02:15:28;;;;;;;2.53;2.30;;;16.50;49.50;;;;;;5098808;28;20050;-71
2023/01/30 02:17:53;;;;;;;4.07;2.95;;;16.60;49.30;;;;;;5100211;28;20020;-71
2023/01/30 02:20:48;;;;;;;3.35;2.83;;;16.60;49.20;;;;;;5100127;28;20087;-71
2023/01/30 02:23:17;;;;;;;2.78;2.10;;;16.70;49.10;;;;;;5100229;28;20035;-70
2023/01/30 02:25:58;;;;;;;3.00;2.65;;;16.70;49.10;;;;;;5099005;28;20016;-71
2023/01/30 02:28:51;;;;;;;3.47;2.60;;;16.70;49.00;;;;;;5100073;28;20031;-70
2023/01/30 02:31:45;;;;;;;3.42;2.70;;;16.70;49.10;;;;;;5099956;28;20024;-71
2023/01/30 02:34:23;;;;;;;2.63;2.40;;;16.70;49.00;;;;;;5086479;28;20032;-70
2023/01/30 02:36:58;;;;;;;2.93;2.60;;;16.60;49.00;;;;;;5099919;28;20091;-70
2023/01/30 02:39:44;;;;;;;3.08;2.72;;;16.70;49.10;;;;;;5099962;28;20032;-71
2023/01/30 02:42:28;;;;;;;3.45;2.90;;;16.60;48.80;;;;;;5098554;28;20093;-71
2023/01/30 02:45:23;;;;;;;2.97;2.22;;;16.70;48.90;;;;;;5099878;28;20031;-71
2023/01/30 02:47:55;;;;;;;3.72;2.95;;;16.60;48.90;;;;;;5098516;28;20225;-71
2023/01/30 02:50:34;;;;;;;2.63;2.08;;;16.50;49.00;;;;;;5099693;28;20366;-71
2023/01/30 02:53:01;;;;;;;5.22;2.72;;;16.50;49.20;;;;;;5100838;28;20024;-70
2023/01/30 02:55:28;;;;;;;2.58;2.30;;;16.40;49.40;;;;;;5103534;28;20024;-70
2023/01/30 02:57:54;;;;;;;2.80;2.53;;;16.30;49.40;;;;;;5102140;28;20225;-71
2023/01/30 03:01:02;;;;;;;2.50;2.30;;;16.20;49.50;;;;;;5103461;28;20043;-70
2023/01/30 03:03:45;;;;;;;2.72;2.38;;;16.20;49.70;;;;;;5103480;28;20091;-71
2023/01/30 03:06:38;;;;;;;3.17;2.13;;;16.10;49.80;;;;;;5103352;28;20112;-70
2023/01/30 03:09:13;;;;;;;2.92;2.60;;;16.10;50.10;;;;;;5101738;28;20059;-70
2023/01/30 03:12:20;;;;;;;3.03;2.20;;;16.10;50.30;;;;;;5103414;28;20135;-72
2023/01/30 03:14:55;;;;;;;2.47;2.28;;;16.00;50.40;;;;;;5103394;28;20077;-70
2023/01/30 03:17:23;;;;;;;2.40;2.20;;;16.00;50.50;;;;;;5103305;28;20019;-70
2023/01/30 03:19:51;;;;;;;3.88;2.70;;;16.00;50.50;;;;;;5101727;28;20028;-71
2023/01/30 03:22:18;;;;;;;2.70;2.50;;;16.10;50.50;;;;;;5101821;28;20028;-70
2023/01/30 03:24:44;;;;;;;3.10;2.80;;;16.10;50.40;;;;;;5103093;28;20047;-70
2023/01/30 03:27:12;;;;;;;2.83;2.33;;;16.20;50.20;;;;;;5102998;28;20047;-70
2023/01/30 03:29:38;;;;;;;2.95;2.45;;;16.30;50.00;;;;;;5102850;28;20042;-70
2023/01/30 03:32:04;;;;;;;2.63;2.33;;;16.40;49.80;;;;;;5102803;28;20019;-70
2023/01/30 03:34:30;;;;;;;2.58;2.30;;;16.50;49.50;;;;;;5102839;28;20319;-69
2023/01/30 03:36:56;;;;;;;3.65;2.88;;;16.50;49.40;;;;;;5101382;28;20028;-70
2023/01/30 03:39:23;;;;;;;3.70;2.63;;;16.50;49.30;;;;;;5102674;28;20035;-69
2023/01/30 03:41:50;;;;;;;2.80;2.50;;;16.50;49.30;;;;;;5102545;28;20027;-70
2023/01/30 03:44:16;;;;;;;2.95;2.38;;;16.50;49.20;;;;;;5102591;28;20024;-70
2023/01/30 03:46:42;;;;;;;4.22;2.70;;;16.50;49.10;;;;;;5102476;28;20269;-69
2023/01/30 03:49:08;;;;;;;2.97;2.67;;;16.50;49.10;;;;;;5102403;28;20034;-70
2023/01/30 03:51:33;;;;;;;3.15;2.63;;;16.50;49.00;;;;;;5102490;28;20024;-70
2023/01/30 03:53:59;;;;;;;3.17;2.72;;;16.60;49.00;;;;;;5102398;28;20029;-70
2023/01/30 03:56:25;;;;;;;3.72;2.80;;;16.60;49.00;;;;;;5101090;28;20024;-70
2023/01/30 03:58:51;;;;;;;2.88;2.58;;;16.50;49.00;;;;;;5102447;28;20024;-70
2023/01/30 04:01:16;;;;;;;3.88;2.55;;;16.40;49.10;;;;;;5102487;28;20039;-69
2023/01/30 04:03:42;;;;;;;2.78;2.55;;;16.40;49.20;;;;;;5101323;28;20031;-70
2023/01/30 04:06:08;;;;;;;2.80;2.50;;;16.30;49.40;;;;;;5102203;28;20031;-70
2023/01/30 04:08:34;;;;;;;3.40;2.40;;;16.20;49.40;;;;;;5101674;28;20059;-70
2023/01/30 04:11:00;;;;;;;2.97;2.50;;;16.10;49.40;;;;;;5102027;28;20056;-70
2023/01/30 04:13:25;;;;;;;3.03;2.35;;;16.10;49.70;;;;;;5102114;28;20331;-70
2023/01/30 04:15:51;;;;;;;2.50;2.30;;;16.00;49.80;;;;;;5100687;28;20016;-70
2023/01/30 04:18:17;;;;;;;4.38;3.10;;;16.00;50.00;;;;;;5100711;28;20031;-70
2023/01/30 04:20:43;;;;;;;3.42;2.30;;;16.00;50.10;;;;;;5102006;28;20373;-70
2023/01/30 04:23:08;;;;;;;2.70;2.50;;;15.90;50.20;;;;;;5101935;28;20083;-70
2023/01/30 04:25:34;;;;;;;2.38;2.17;;;15.90;50.30;;;;;;5101818;28;20031;-70
2023/01/30 04:28:00;;;;;;;2.70;2.20;;;15.90;50.40;;;;;;5101706;28;20027;-70
2023/01/30 04:30:26;;;;;;;2.90;2.25;;;15.90;50.60;;;;;;5101625;28;20095;-70
2023/01/30 04:32:52;;;;;;;3.90;2.85;;;16.00;50.60;;;;;;5101696;28;20027;-70
2023/01/30 04:35:17;;;;;;;3.38;2.83;;;16.00;50.40;;;;;;5101606;28;20051;-70
2023/01/30 04:37:43;;;;;;;3.55;3.22;;;16.10;50.20;;;;;;5101540;28;20336;-70
2023/01/30 04:40:09;;;;;;;3.85;2.47;;;16.20;50.10;;;;;;5101556;28;20051;-70
2023/01/30 04:42:36;;;;;;;2.90;2.42;;;16.30;49.80;;;;;;5101442;28;20087;-70
2023/01/30 04:45:02;;;;;;;3.03;2.50;;;16.40;49.60;;;;;;5101531;28;20032;-70
2023/01/30 04:47:27;;;;;;;2.97;2.63;;;16.40;49.60;;;;;;5101459;28;20091;-70
2023/01/30 04:49:53;;;;;;;3.63;2.30;;;16.40;49.50;;;;;;5101277;28;20055;-70
2023/01/30 04:52:19;;;;;;;2.13;1.92;;;16.40;49.40;;;;;;5101327;28;20028;-70
2023/01/30 04:54:45;;;;;;;4.32;2.85;;;16.50;49.30;;;;;;5101192;28;20061;-70
2023/01/30 04:57:10;;;;;;;3.05;2.67;;;16.50;49.20;;;;;;5101279;28;20091;-69
2023/01/30 04:59:36;;;;;;;3.35;2.40;;;16.50;49.10;;;;;;5101119;28;20027;-70
2023/01/30 05:02:02;;;;;;;3.03;2.45;;;16.50;49.10;;;;;;5099786;28;20024;-70
2023/01/30 05:04:28;;;;;;;2.75;2.47;;;16.50;49.00;;;;;;5101175;28;20032;-70
2023/01/30 05:06:53;;;;;;;3.33;2.78;;;16.50;49.00;;;;;;5101027;28;20028;-70
2023/01/30 05:09:19;;;;;;;2.95;2.65;;;16.50;49.00;;;;;;5100895;28;20101;-70
2023/01/30 05:11:45;;;;;;;3.00;2.65;;;16.50;48.90;;;;;;5101008;28;20023;-70
2023/01/30 05:14:11;;;;;;;2.67;2.40;;;16.50;49.00;;;;;;5101105;28;20024;-70
2023/01/30 05:16:36;;;;;;;3.47;2.78;;;16.50;48.90;;;;;;5100863;28;20343;-73
2023/01/30 05:19:02;;;;;;;3.53;2.33;;;16.50;48.90;;;;;;5100886;28;20087;-70
2023/01/30 05:21:28;;;;;;;3.13;2.83;;;16.50;48.80;;;;;;5100794;28;20065;-70
2023/01/30 05:23:55;;;;;;;3.90;2.95;;;16.50;48.60;;;;;;5100756;28;20024;-70
2023/01/30 05:26:21;;;;;;;3.63;2.90;;;16.50;48.80;;;;;;5100733;28;20095;-71
2023/01/30 05:28:54;;;;;;;3.33;2.53;;;16.50;48.70;;;;;;5100755;28;20575;-71
2023/01/30 05:31:21;;;;;;;3.35;2.80;;;16.40;48.70;;;;;;5100604;28;20032;-70
2023/01/30 05:33:49;;;;;;;3.03;2.47;;;16.40;49.10;;;;;;5100668;28;20035;-71
2023/01/30 05:36:17;;;;;;;2.83;2.53;;;16.30;49.30;;;;;;5100718;28;20185;-70
2023/01/30 05:38:44;;;;;;;2.95;2.67;;;16.20;49.30;;;;;;5100652;28;20315;-71
2023/01/30 05:41:11;;;;;;;2.85;2.30;;;16.20;49.60;;;;;;5100508;28;20216;-71
2023/01/30 05:43:37;;;;;;;3.33;2.75;;;16.20;49.70;;;;;;5100536;28;20030;-70
2023/01/30 05:46:04;;;;;;;2.90;2.47;;;16.10;49.70;;;;;;5100446;28;20028;-71
2023/01/30 05:48:31;;;;;;;2.60;2.10;;;16.10;49.70;;;;;;5100467;28;20062;-71
2023/01/30 05:50:58;;;;;;;2.78;2.53;;;16.00;49.90;;;;;;5100379;28;20568;-70
2023/01/30 05:53:27;;;;;;;2.80;2.35;;;16.00;50.10;;;;;;5100367;28;20080;-71
2023/01/30 05:56:01;;;;;;;2.55;2.17;;;16.00;50.10;;;;;;5100442;28;20024;-70
2023/01/30 05:58:27;;;;;;;2.60;2.40;;;15.90;50.40;;;;;;5100309;28;20024;-72
2023/01/30 06:00:54;;;;;;;2.85;2.55;;;15.90;50.40;;;;;;5099066;28;20024;-70
2023/01/30 06:03:20;;;;;;;3.85;2.75;;;15.90;50.60;;;;;;5100534;28;20115;-70
2023/01/30 06:05:45;;;;;;;1.98;1.77;;;16.00;50.50;;;;;;5100429;28;20495;-70
2023/01/30 06:08:11;;;;;;;2.75;2.50;;;16.00;50.30;;;;;;5100133;28;20058;-70
2023/01/30 06:10:37;;;;;;;2.67;2.38;;;16.10;50.00;;;;;;5100204;28;20228;-70
2023/01/30 06:13:03;;;;;;;2.80;2.42;;;16.20;50.10;;;;;;5098962;28;20052;-70
2023/01/30 06:15:29;;;;;;;3.70;2.33;;;16.30;49.70;;;;;;5100270;28;20027;-70
2023/01/30 06:17:55;;;;;;;3.38;2.80;;;16.30;49.50;;;;;;5100269;28;20028;-71
2023/01/30 06:20:21;;;;;;;3.42;2.65;;;16.30;49.40;;;;;;5100253;28;20031;-70
2023/01/30 06:22:47;;;;;;;3.38;2.80;;;16.30;49.30;;;;;;5098836;28;20224;-70
2023/01/30 06:25:14;;;;;;;2.88;2.55;;;16.30;49.10;;;;;;5100178;28;20040;-70
2023/01/30 06:27:42;;;;;;;2.95;2.53;;;16.40;49.10;;;;;;5102024;28;20028;-70
2023/01/30 06:30:08;;;;;;;2.40;2.20;;;16.30;49.10;;;;;;5103969;28;20095;-71
2023/01/30 06:32:34;;;;;;;2.90;2.55;;;16.40;49.10;;;;;;5103797;28;20090;-71
2023/01/30 06:35:00;;;;;;;3.58;2.83;;;16.40;49.00;;;;;;5103934;28;20320;-70
2023/01/30 06:37:25;;;;;;;3.65;2.72;;;16.40;48.90;;;;;;5102548;28;20020;-71
2023/01/30 06:39:51;;;;;;;2.67;2.47;;;16.50;49.00;;;;;;5103900;28;20035;-71
2023/01/30 06:42:17;;;;;;;3.13;2.58;;;16.40;49.00;;;;;;5103855;28;20028;-70
2023/01/30 06:44:43;;;;;;;2.90;2.30;;;16.50;48.90;;;;;;5103752;28;20027;-71
2023/01/30 06:47:09;;;;;;;3.65;3.35;;;16.50;48.80;;;;;;5103718;28;20024;-71
2023/01/30 06:49:35;;;;;;;3.80;3.00;;;16.50;48.80;;;;;;5103587;28;20024;-70
2023/01/30 06:52:00;;;;;;;3.03;2.72;;;16.50;48.90;;;;;;5103674;28;20024;-70
2023/01/30 06:54:26;;;;;;;4.72;3.35;;;16.50;48.70;;;;;;5103771;28;20312;-70
2023/01/30 06:56:52;;;;;;;4.80;3.35;;;16.60;48.60;;;;;;5103632;28;20068;-71
2023/01/30 06:59:18;;;;;;;3.28;2.95;;;16.60;48.80;;;;;;5103653;28;20070;-70
2023/01/30 07:01:44;;;;;;;3.65;2.70;;;16.50;48.90;;;;;;5103521;28;20324;-71
2023/01/30 07:04:10;;;;;;;3.15;2.72;;;16.50;49.00;;;;;;5102168;28;20100;-70
2023/01/30 07:06:36;;;;;;;2.78;2.40;;;16.50;49.20;;;;;;5103443;28;20344;-70
2023/01/30 07:09:01;;;;;;;2.53;2.25;;;16.50;49.90;;;;;;5101913;28;20344;-71
2023/01/30 07:11:27;;;;;;;2.15;1.90;;;16.40;49.40;;;;;;5103199;28;20332;-70
2023/01/30 07:13:53;;;;;;;2.05;1.77;;;16.30;49.70;;;;;;5103178;28;20244;-71
2023/01/30 07:16:19;;;;;;;3.00;2.70;;;16.30;49.80;;;;;;5103158;28;20024;-70
2023/01/30 07:18:45;;;;;;;2.58;2.30;;;16.30;49.80;;;;;;5103085;28;20028;-70
2023/01/30 07:21:10;;;;;;;3.40;2.42;;;16.20;49.80;;;;;;5101578;28;20012;-70
2023/01/30 07:23:36;;;;;;;3.38;2.58;;;16.20;49.90;;;;;;5103016;28;20036;-70
2023/01/30 07:26:04;;;;;;;3.63;2.53;;;16.10;50.00;;;;;;5101544;28;20375;-71
2023/01/30 07:28:30;;;;;;;2.67;2.08;;;16.10;50.00;;;;;;5102787;28;20020;-71
2023/01/30 07:30:59;;;;;;;3.40;2.65;;;16.10;50.00;;;;;;5101517;28;20027;-71
2023/01/30 07:33:24;;;;;;;3.35;2.80;;;16.00;50.10;;;;;;5102846;28;20020;-70
2023/01/30 07:35:50;;;;;;;3.50;2.70;;;16.10;50.20;;;;;;5102770;28;20024;-71
2023/01/30 07:38:16;;;;;;;3.30;2.83;;;16.10;50.20;;;;;;5102736;28;20020;-71
2023/01/30 07:40:42;;;;;;;4.40;3.38;;;16.20;50.10;;;;;;5102886;28;20042;-71
2023/01/30 07:43:11;;;;;;;5.57;3.88;;;16.30;49.90;;;;;;5102712;28;20278;-71
2023/01/30 07:45:39;;;;;;;4.90;3.80;;;16.40;49.80;;;;;;5102630;28;20043;-70
2023/01/30 07:48:06;;;;;;;4.75;3.65;;;16.40;49.60;;;;;;5102546;28;20232;-70
2023/01/30 07:50:32;;;;;;;6.18;3.97;;;16.50;49.30;;;;;;5102430;28;20035;-69
2023/01/30 07:52:58;;;;;;;4.95;3.22;;;16.50;49.20;;;;;;5102557;28;20024;-70
2023/01/30 07:55:23;;;;;;;4.70;3.38;;;16.50;49.10;;;;;;5102450;28;20133;-69
2023/01/30 07:57:49;;;;;;;3.88;2.90;;;16.60;49.10;;;;;;5101107;28;20221;-70
2023/01/30 08:00:15;;;;;;;3.42;2.75;;;16.60;49.00;;;;;;5101117;28;20027;-69
2023/01/30 08:02:41;;;;;;;2.83;2.53;;;16.70;49.00;;;;;;5102351;28;20243;-70
2023/01/30 08:05:07;;;;;;;3.03;2.70;;;16.60;48.80;;;;;;5100953;28;20028;-70
2023/01/30 08:07:33;;;;;;;3.42;2.83;;;16.70;48.90;;;;;;5101937;28;20070;-70
2023/01/30 08:09:59;;;;;;;4.50;2.80;;;16.70;48.80;;;;;;5102033;28;20028;-70
2023/01/30 08:12:25;;;;;;;3.35;2.53;;;16.70;48.80;;;;;;5102064;28;20339;-70
2023/01/30 08:14:51;;;;;;;2.92;2.55;;;16.80;48.90;;;;;;5100624;28;20023;-70
2023/01/30 08:17:16;;;;;;;3.08;2.28;;;16.80;49.10;;;;;;5102042;28;20031;-70
2023/01/30 08:19:42;;;;;;;3.78;2.50;;;16.80;49.00;;;;;;5101887;28;20036;-70
2023/01/30 08:22:08;;;;;;;2.60;2.40;;;16.80;49.00;;;;;;5101915;28;20046;-70
2023/01/30 08:24:34;;;;;;;4.10;2.95;;;16.90;48.90;;;;;;5100472;28;20073;-70
2023/01/30 08:27:00;;;;;;;3.40;2.90;;;16.80;48.70;;;;;;5101799;28;20267;-70
2023/01/30 08:29:25;;;;;;;3.13;2.70;;;16.80;48.70;;;;;;5101628;28;20052;-70
2023/01/30 08:31:59;;;;;;;2.85;2.55;;;16.80;48.80;;;;;;5100298;28;20024;-70
2023/01/30 08:34:25;;;;;;;3.13;2.53;;;16.80;49.00;;;;;;5100347;28;20035;-71
2023/01/30 08:36:51;;;;;;;3.53;2.72;;;16.70;49.00;;;;;;5100314;28;20099;-70
2023/01/30 08:39:17;;;;;;;3.20;2.85;;;16.70;49.10;;;;;;5101600;28;20024;-71
2023/01/30 08:41:43;;;;;;;3.70;2.60;;;16.70;49.30;;;;;;5100221;28;20024;-70
2023/01/30 08:44:10;;;;;;;2.40;2.15;;;16.60;49.40;;;;;;5100130;28;20141;-70
2023/01/30 08:46:37;;;;;;;3.17;2.83;;;16.50;49.40;;;;;;5101464;28;20023;-71
2023/01/30 08:49:03;;;;;;;2.67;2.33;;;16.50;49.40;;;;;;5101367;28;20028;-71
2023/01/30 08:51:29;;;;;;;3.47;2.50;;;16.50;49.60;;;;;;5100877;28;20024;-71
2023/01/30 08:53:55;;;;;;;3.83;2.47;;;16.40;49.70;;;;;;5101222;28;20024;-70
2023/01/30 08:56:21;;;;;;;2.30;2.10;;;16.40;49.70;;;;;;5101311;28;20030;-71
2023/01/30 08:58:47;;;;;;;2.67;2.30;;;16.30;49.80;;;;;;5101401;28;20280;-71
2023/01/30 09:01:14;;;;;;;3.42;2.95;;;16.40;49.90;;;;;;5101510;28;20250;-71
2023/01/30 09:03:41;;;;;;;4.45;2.70;;;16.40;49.70;;;;;;5101141;28;20201;-70
2023/01/30 09:06:07;;;;;;;2.45;2.17;;;16.50;49.50;;;;;;5099814;28;20220;-70
2023/01/30 09:08:33;;;;;;;3.35;2.83;;;16.60;49.50;;;;;;5100969;28;20119;-71
2023/01/30 09:11:00;;;;;;;3.10;2.75;;;16.60;49.20;;;;;;5101308;28;20032;-70
2023/01/30 09:13:26;;;;;;;2.83;2.42;;;16.70;49.20;;;;;;5101049;28;20086;-71
2023/01/30 09:15:52;;;;;;;2.92;2.28;;;16.70;49.10;;;;;;5100928;28;20026;-71
2023/01/30 09:18:19;;;;;;;2.47;2.28;;;16.80;49.20;;;;;;5101065;28;20377;-71
2023/01/30 09:20:45;;;;;;;3.58;2.28;;;16.80;49.20;;;;;;5100777;28;20247;-71
2023/01/30 09:23:10;;;;;;;2.72;2.33;;;16.80;49.20;;;;;;5100773;28;20090;-71
2023/01/30 09:25:36;;;;;;;2.83;2.30;;;16.90;49.20;;;;;;5100726;28;20426;-70
2023/01/30 09:28:02;;;;;;;3.60;2.80;;;16.90;49.20;;;;;;5100746;28;20036;-71
2023/01/30 09:30:28;;;;;;;2.70;2.42;;;16.90;49.00;;;;;;5100667;28;20319;-70
2023/01/30 09:32:54;;;;;;;4.25;2.65;;;17.00;49.00;;;;;;5100592;28;20024;-71
2023/01/30 09:35:20;;;;;;;3.67;2.92;;;17.00;48.90;;;;;;5100540;28;20028;-71
2023/01/30 09:37:47;;;;;;;3.72;2.88;;;16.90;48.70;;;;;;5099274;28;20030;-72
2023/01/30 09:40:22;;;;;;;3.50;2.50;;;16.90;48.90;;;;;;5100615;28;20030;-70
2023/01/30 09:43:10;;;;;;;3.17;2.40;;;16.90;48.80;;;;;;5100539;28;20347;-71
2023/01/30 09:45:54;;;;;;;2.92;2.58;;;16.90;48.80;;;;;;5100386;28;20065;-70
2023/01/30 09:48:23;;;;;;;3.78;2.75;;;16.90;48.80;;;;;;5100572;28;20024;-70
2023/01/30 09:51:01;;;;;;;2.20;1.92;;;16.90;49.00;;;;;;5100418;28;20035;-71
2023/01/30 09:54:03;;;;;;;2.97;2.67;;;16.90;49.20;;;;;;5100463;28;20353;-71
2023/01/30 09:56:29;;;;;;;3.30;2.67;;;16.90;48.90;;;;;;5100375;28;20543;-70
2023/01/30 09:59:00;;;;;;;3.28;2.50;;;16.90;49.10;;;;;;5100387;28;20024;-69
2023/01/30 10:02:02;;;;;;;3.13;2.05;;;16.90;49.00;;;;;;5100340;28;20020;-69
2023/01/30 10:04:42;;;;;;;3.03;2.55;;;16.80;49.20;;;;;;5104634;28;20024;-70
2023/01/30 10:07:37;;;;;;;2.95;2.65;;;16.80;49.10;;;;;;5104442;28;20069;-70
2023/01/30 10:10:16;;;;;;;3.42;2.65;;;16.80;49.10;;;;;;5104337;28;20054;-70
2023/01/30 10:12:42;;;;;;;2.20;2.00;;;16.70;49.00;;;;;;5103171;28;20028;-71
2023/01/30 10:15:46;;;;;;;3.03;2.65;;;16.70;49.20;;;;;;5104364;28;20023;-72
2023/01/30 10:18:35;;;;;;;3.63;2.75;;;16.60;49.30;;;;;;5069903;28;20036;-70
2023/01/30 10:21:01;;;;;;;2.92;2.63;;;16.70;49.50;;;;;;5104206;28;20039;-72
2023/01/30 10:23:57;;;;;;;3.70;2.60;;;16.60;49.40;;;;;;5102843;28;20381;-70
2023/01/30 10:26:26;;;;;;;3.00;2.67;;;16.60;49.50;;;;;;5102918;28;20031;-70
2023/01/30 10:29:11;;;;;;;2.90;2.40;;;16.60;49.50;;;;;;5104148;28;20333;-70
2023/01/30 10:32:12;;;;;;;2.72;2.38;;;16.60;49.50;;;;;;5102814;28;20081;-71
2023/01/30 10:34:42;;;;;;;3.47;2.40;;;16.50;49.60;;;;;;5104188;28;20316;-71
2023/01/30 10:37:46;;;;;;;2.83;1.92;;;16.60;49.70;;;;;;5104069;28;20239;-71
2023/01/30 10:40:18;;;;;;;3.15;2.63;;;16.70;49.70;;;;;;5104130;28;20032;-71
2023/01/30 10:43:13;;;;;;;3.22;2.47;;;16.80;49.50;;;;;;5103908;28;20258;-70
2023/01/30 10:45:48;;;;;;;3.53;2.70;;;16.90;49.30;;;;;;5076135;28;20040;-69
2023/01/30 10:48:28;;;;;;;2.45;2.25;;;16.90;49.10;;;;;;5103795;28;20059;-70
2023/01/30 10:51:12;;;;;;;2.58;2.20;;;17.00;49.10;;;;;;5103654;28;20032;-71
2023/01/30 10:53:49;;;;;;;3.03;2.40;;;17.00;49.10;;;;;;5103733;28;20020;-70
2023/01/30 10:56:19;;;;;;;2.40;2.20;;;17.00;49.10;;;;;;5103622;28;20028;-70
2023/01/30 10:59:00;;;;;;;3.42;2.85;;;17.00;48.80;;;;;;5103499;28;20016;-71
2023/01/30 11:01:39;;;;;;;2.90;2.28;;;17.00;48.80;;;;;;5103538;28;20034;-70
2023/01/30 11:04:23;;;;;;;2.40;2.08;;;17.00;48.70;;;;;;5103409;28;20365;-71
2023/01/30 11:06:51;;;;;;;3.05;2.35;;;17.00;49.00;;;;;;5103391;28;20040;-70
2023/01/30 11:09:16;;;;;;;3.08;2.30;;;17.00;49.10;;;;;;5103222;28;20067;-70
2023/01/30 11:11:54;;;;;;;2.75;2.47;;;17.00;49.30;;;;;;5103258;28;20244;-70
2023/01/30 11:14:20;;;;;;;3.17;2.63;;;16.90;49.20;;;;;;5101579;28;20250;-70
2023/01/30 11:16:57;;;;;;;2.40;2.00;;;16.90;49.00;;;;;;5102048;28;20012;-69
2023/01/30 11:19:33;;;;;;;3.15;2.38;;;16.90;49.10;;;;;;5103229;28;20016;-71
2023/01/30 11:22:02;;;;;;;2.72;2.35;;;16.80;49.20;;;;;;5103241;28;20383;-71
2023/01/30 11:24:39;;;;;;;3.20;2.05;;;16.80;49.20;;;;;;5101980;28;20029;-70
2023/01/30 11:27:26;;;;;;;2.95;2.25;;;16.80;49.20;;;;;;5103160;28;20027;-72
2023/01/30 11:30:02;;;;;;;2.75;2.45;;;16.70;49.30;;;;;;5102986;28;20099;-71
2023/01/30 11:32:28;;;;;;;2.35;2.13;;;16.70;49.40;;;;;;5102919;28;20027;-70
2023/01/30 11:35:28;;;;;;;3.08;2.28;;;16.70;49.50;;;;;;5102782;28;20114;-70
2023/01/30 11:38:09;;;;;;;2.53;2.20;;;16.60;49.70;;;;;;5102595;28;20043;-70
2023/01/30 11:40:39;;;;;;;2.28;2.08;;;16.50;49.80;;;;;;5102918;28;20028;-70
2023/01/30 11:43:11;;;;;;;2.40;2.05;;;16.50;50.00;;;;;;5102861;28;20024;-70
2023/01/30 11:45:40;;;;;;;3.45;2.28;;;16.50;50.10;;;;;;5102815;28;20121;-70
2023/01/30 11:48:15;;;;;;;2.28;2.05;;;16.40;50.20;;;;;;5102609;28;20032;-69
2023/01/30 11:50:47;;;;;;;2.88;2.03;;;16.50;50.30;;;;;;5102398;28;20095;-71
2023/01/30 11:53:34;;;;;;;2.90;2.25;;;16.50;50.00;;;;;;5102519;28;20381;-70
2023/01/30 11:56:28;;;;;;;3.22;2.78;;;16.60;49.80;;;;;;5102405;28;20048;-70
2023/01/30 11:59:00;;;;;;;3.30;2.35;;;16.80;49.50;;;;;;5093910;28;20232;-70
2023/01/30 12:01:29;;;;;;;4.00;2.55;;;16.90;49.50;;;;;;5102340;28;20051;-70
2023/01/30 12:03:56;;;;;;;;;;;17.00;49.30;;;;;;5102808;28;20020;-70
2023/01/30 12:06:31;;;;;;;2.22;1.90;;;16.90;49.20;;;;;;5100853;28;19950;-70
2023/01/30 12:08:57;;;;;;;2.47;2.28;;;17.00;49.30;;;;;;5100276;28;20052;-70
2023/01/30 12:11:35;;;;;;;2.83;2.47;;;16.90;49.20;;;;;;5102078;28;20051;-70
2023/01/30 12:14:31;;;;;;;3.45;2.67;;;17.00;49.10;;;;;;5100816;28;20019;-70
2023/01/30 12:16:59;;;;;;;3.70;2.38;;;17.00;48.90;;;;;;5093363;28;20103;-70
2023/01/30 12:19:44;;;;;;;;;;;17.00;49.10;;;;;;5102767;28;20016;-70
2023/01/30 12:22:15;;;;;;;2.75;2.30;;;17.00;49.10;;;;;;5101924;28;19915;-70
2023/01/30 12:24:58;;;;;;;3.00;2.60;;;17.00;49.10;;;;;;5100999;28;20095;-70
2023/01/30 12:27:43;;;;;;;2.63;2.15;;;17.10;49.30;;;;;;5101775;28;20091;-69
2023/01/30 12:30:36;;;;;;;1.88;1.67;;;17.00;49.20;;;;;;5100498;28;20367;-70
2023/01/30 12:33:06;;;;;;;2.20;1.98;;;17.00;49.30;;;;;;5101766;28;20039;-70
2023/01/30 12:35:56;;;;;;;2.63;2.38;;;17.00;49.30;;;;;;5100413;28;20335;-69
2023/01/30 12:38:48;;;;;;;2.75;2.13;;;17.00;49.40;;;;;;5101546;28;20027;-69
2023/01/30 12:41:42;;;;;;;3.10;2.05;;;17.10;49.30;;;;;;5098531;28;20074;-71
2023/01/30 12:45:13;;;;;;;2.90;2.20;;;17.10;49.30;;;;;;5101757;28;20024;-71
2023/01/30 12:47:56;;;;;;;2.47;2.22;;;17.00;49.10;;;;;;5060842;28;20035;-70
2023/01/30 12:50:26;;;;;;;2.92;2.17;;;17.00;49.00;;;;;;5100151;28;20292;-70
2023/01/30 12:53:29;;;;;;;2.67;2.40;;;16.90;49.00;;;;;;5101389;28;20091;-71
2023/01/30 12:56:27;;;;;;;3.53;2.53;;;16.90;49.20;;;;;;5101350;28;20024;-71
2023/01/30 12:59:27;;;;;;;2.83;2.17;;;16.90;49.30;;;;;;5101366;28;20024;-71
2023/01/30 13:02:28;;;;;;;2.75;2.20;;;16.80;49.50;;;;;;5101195;28;20028;-70
2023/01/30 13:05:25;;;;;;;2.80;2.40;;;16.70;49.70;;;;;;5074402;28;20032;-70
2023/01/30 13:08:16;;;;;;;2.85;2.30;;;16.60;49.80;;;;;;5101246;28;20069;-70
2023/01/30 13:10:51;;;;;;;2.45;2.00;;;16.60;49.90;;;;;;5100972;28;20104;-70
2023/01/30 13:13:52;;;;;;;2.60;2.33;;;16.50;50.00;;;;;;5101047;28;20069;-70
2023/01/30 13:16:45;;;;;;;2.58;2.38;;;16.50;50.10;;;;;;5087675;28;20088;-70